Time;durP1;ratioP1;P1;durP2;ratioP2;P2;SDS_P1;SDS_P2;PMS_P1;PMS_P2;Temp;Humidity;BMP_temperature;BMP_pressure;BME280_temperature;BME280_humidity;BME280_pressure;Samples;Min_cycle;Max_cycle;Signal;HPM_P1;HPM_P2
2021/10/20 00:02:01;;;;;;;22.43;2.80;;;16.10;99.90;;;;;;5077476;28;20472;-83
2021/10/20 00:04:28;;;;;;;20.90;2.40;;;16.00;99.90;;;;;;5073558;28;20540;-85
2021/10/20 00:06:55;;;;;;;21.83;2.70;;;16.10;99.90;;;;;;5075651;28;20450;-84
2021/10/20 00:09:23;;;;;;;20.60;2.57;;;16.10;99.90;;;;;;5060682;28;20447;-84
2021/10/20 00:11:50;;;;;;;21.80;2.73;;;16.10;99.90;;;;;;5068582;28;20853;-85
2021/10/20 00:14:17;;;;;;;26.63;2.90;;;16.10;99.90;;;;;;5079609;28;21045;-83
2021/10/20 00:16:44;;;;;;;19.87;2.70;;;16.00;99.90;;;;;;5080090;28;20531;-83
2021/10/20 00:19:11;;;;;;;22.13;5.07;;;16.10;99.90;;;;;;5079404;28;20451;-84
2021/10/20 00:21:38;;;;;;;19.40;2.70;;;16.00;99.90;;;;;;5080933;28;20471;-84
2021/10/20 00:24:05;;;;;;;20.30;2.90;;;16.00;99.90;;;;;;5081471;28;20447;-84
2021/10/20 00:26:33;;;;;;;20.40;3.50;;;16.00;99.90;;;;;;5085446;28;20902;-84
2021/10/20 00:29:00;;;;;;;19.33;2.70;;;16.00;99.90;;;;;;5082770;28;20466;-84
2021/10/20 00:31:29;;;;;;;22.90;2.93;;;15.90;99.90;;;;;;5088450;28;20495;-85
2021/10/20 00:33:56;;;;;;;20.97;2.57;;;15.90;99.90;;;;;;5095294;28;20452;-85
2021/10/20 00:36:23;;;;;;;20.80;3.10;;;16.00;99.90;;;;;;5082484;28;20827;-84
2021/10/20 00:38:50;;;;;;;23.10;3.80;;;16.00;99.90;;;;;;5080788;28;20455;-84
2021/10/20 00:41:17;;;;;;;22.53;3.30;;;16.00;99.90;;;;;;5082624;28;20483;-85
2021/10/20 00:43:45;;;;;;;21.40;3.03;;;16.00;99.90;;;;;;5084947;28;20958;-85
2021/10/20 00:46:12;;;;;;;22.53;2.80;;;15.90;99.90;;;;;;5083206;28;20487;-84
2021/10/20 00:48:38;;;;;;;24.03;3.60;;;16.00;99.90;;;;;;5083053;28;20453;-84
2021/10/20 00:51:05;;;;;;;19.03;2.53;;;16.00;99.90;;;;;;5082155;28;20473;-83
2021/10/20 00:53:32;;;;;;;19.27;2.70;;;16.00;99.90;;;;;;5084648;28;20453;-84
2021/10/20 00:55:59;;;;;;;22.47;3.13;;;15.90;99.90;;;;;;5083641;28;20465;-84
2021/10/20 00:58:26;;;;;;;28.00;3.87;;;15.90;99.90;;;;;;5082523;28;20455;-83
2021/10/20 01:00:54;;;;;;;20.43;2.70;;;15.80;99.90;;;;;;5083991;28;20539;-83
2021/10/20 01:03:21;;;;;;;21.47;3.13;;;15.80;99.90;;;;;;5083353;28;20454;-84
2021/10/20 01:05:48;;;;;;;21.43;2.70;;;15.80;99.90;;;;;;5082214;28;20477;-81
2021/10/20 01:08:15;;;;;;;19.93;3.47;;;15.80;99.90;;;;;;5080358;28;20458;-81
2021/10/20 01:10:42;;;;;;;21.63;3.03;;;15.80;99.90;;;;;;5075573;28;20479;-83
2021/10/20 01:13:09;;;;;;;19.30;2.57;;;15.80;99.90;;;;;;5072446;28;20547;-84
2021/10/20 01:15:36;;;;;;;21.97;2.90;;;15.90;99.90;;;;;;5082183;28;20880;-83
2021/10/20 01:18:04;;;;;;;21.50;3.07;;;15.90;99.90;;;;;;5079709;28;20455;-83
2021/10/20 01:20:33;;;;;;;19.50;2.77;;;15.80;99.90;;;;;;5080483;28;20508;-84
2021/10/20 01:23:01;;;;;;;21.53;3.33;;;15.80;99.90;;;;;;5081333;28;20915;-84
2021/10/20 01:25:28;;;;;;;22.17;2.87;;;15.80;99.90;;;;;;5082142;28;20476;-83
2021/10/20 01:27:56;;;;;;;21.27;2.60;;;15.90;99.90;;;;;;5084718;28;20450;-84
2021/10/20 01:30:23;;;;;;;21.67;2.83;;;16.00;99.90;;;;;;5079924;28;21032;-85
2021/10/20 01:32:50;;;;;;;23.20;2.50;;;15.90;99.90;;;;;;5079949;28;20844;-83
2021/10/20 01:35:17;;;;;;;24.07;2.73;;;16.00;99.90;;;;;;5080117;28;20461;-84
2021/10/20 01:37:44;;;;;;;21.60;3.10;;;16.00;99.90;;;;;;5080164;28;20469;-84
2021/10/20 01:40:13;;;;;;;21.70;2.60;;;16.00;99.90;;;;;;5079885;28;20478;-85
2021/10/20 01:42:41;;;;;;;22.33;3.20;;;15.90;99.90;;;;;;5080645;28;20965;-84
2021/10/20 01:45:10;;;;;;;22.70;3.17;;;16.00;99.90;;;;;;5079582;28;20455;-84
2021/10/20 01:47:37;;;;;;;22.23;2.90;;;16.00;99.90;;;;;;5079886;28;20961;-85
2021/10/20 01:50:06;;;;;;;20.93;2.50;;;16.10;99.90;;;;;;5080448;28;20482;-83
2021/10/20 01:52:33;;;;;;;20.80;2.27;;;16.10;99.90;;;;;;5079697;28;20542;-84
2021/10/20 01:55:00;;;;;;;21.73;3.20;;;16.00;99.90;;;;;;5080243;28;20455;-84
2021/10/20 01:57:28;;;;;;;23.00;2.90;;;16.00;99.90;;;;;;5085680;28;20447;-83
2021/10/20 01:59:55;;;;;;;22.77;3.03;;;16.00;99.90;;;;;;5083532;28;20469;-83
2021/10/20 02:02:25;;;;;;;23.37;2.77;;;16.10;99.90;;;;;;5078758;28;20457;-84
2021/10/20 02:04:52;;;;;;;24.57;2.63;;;16.10;99.90;;;;;;5081202;28;20519;-84
2021/10/20 02:07:19;;;;;;;23.47;2.83;;;16.10;99.90;;;;;;5079510;28;20858;-84
2021/10/20 02:09:46;;;;;;;21.07;3.13;;;16.00;99.90;;;;;;5078934;28;20450;-85
2021/10/20 02:12:13;;;;;;;21.70;3.20;;;16.00;99.90;;;;;;5081318;28;20461;-85
2021/10/20 02:14:41;;;;;;;23.20;3.03;;;16.00;99.90;;;;;;5082096;28;20940;-82
2021/10/20 02:17:08;;;;;;;21.90;3.07;;;15.90;99.90;;;;;;5081420;28;20993;-85
2021/10/20 02:19:35;;;;;;;22.87;3.23;;;15.90;99.90;;;;;;5080779;28;20518;-83
2021/10/20 02:22:06;;;;;;;22.13;2.60;;;15.80;99.90;;;;;;5080354;28;20473;-84
2021/10/20 02:24:34;;;;;;;22.10;2.90;;;15.80;99.90;;;;;;5080232;28;20467;-84
2021/10/20 02:27:01;;;;;;;21.57;3.00;;;15.80;99.90;;;;;;5082905;28;20513;-83
2021/10/20 02:29:30;;;;;;;22.27;3.03;;;15.90;99.90;;;;;;5082947;28;20469;-84
2021/10/20 02:31:59;;;;;;;23.40;2.77;;;15.80;99.90;;;;;;5080532;28;20470;-83
2021/10/20 02:34:28;;;;;;;22.70;3.07;;;15.80;99.90;;;;;;5092290;28;20444;-85
2021/10/20 02:36:55;;;;;;;22.17;2.93;;;15.80;99.90;;;;;;5081611;28;21008;-85
2021/10/20 02:39:22;;;;;;;29.17;2.90;;;15.80;99.90;;;;;;5080086;28;20450;-83
2021/10/20 02:41:49;;;;;;;22.10;2.80;;;15.90;99.90;;;;;;5079597;28;20470;-84
2021/10/20 02:44:15;;;;;;;23.60;3.10;;;15.90;99.90;;;;;;5079740;28;20446;-83
2021/10/20 02:46:42;;;;;;;22.57;2.97;;;15.90;99.90;;;;;;5080567;28;20492;-85
2021/10/20 02:49:10;;;;;;;20.90;2.60;;;15.90;99.90;;;;;;5080312;28;20458;-84
2021/10/20 02:51:37;;;;;;;23.63;3.17;;;15.90;99.90;;;;;;5079364;28;20473;-84
2021/10/20 02:54:06;;;;;;;23.20;2.93;;;15.80;99.90;;;;;;5080210;28;20454;-84
2021/10/20 02:56:33;;;;;;;22.53;3.20;;;15.70;99.90;;;;;;5080166;28;20439;-84
2021/10/20 02:58:59;;;;;;;23.80;3.40;;;15.80;99.90;;;;;;5080508;28;20516;-83
2021/10/20 03:01:26;;;;;;;24.80;3.13;;;15.80;99.90;;;;;;5065639;28;20484;-85
2021/10/20 03:03:53;;;;;;;23.43;3.07;;;15.80;99.90;;;;;;5069027;28;20453;-84
2021/10/20 03:06:21;;;;;;;20.97;2.90;;;15.80;99.90;;;;;;5072536;28;20489;-84
2021/10/20 03:08:48;;;;;;;23.20;3.70;;;15.80;99.90;;;;;;5073261;28;20461;-84
2021/10/20 03:11:15;;;;;;;23.63;3.23;;;15.90;99.90;;;;;;5080266;28;20475;-85
2021/10/20 03:13:42;;;;;;;22.10;2.93;;;15.90;99.90;;;;;;5063637;28;20442;-83
2021/10/20 03:16:09;;;;;;;22.07;3.20;;;15.90;99.90;;;;;;5072693;28;20458;-83
2021/10/20 03:18:36;;;;;;;21.10;3.30;;;15.90;99.90;;;;;;5070985;28;20463;-83
2021/10/20 03:21:06;;;;;;;22.80;3.27;;;15.80;99.90;;;;;;5063311;28;20472;-84
2021/10/20 03:23:34;;;;;;;22.90;3.40;;;15.80;99.90;;;;;;5073176;28;20445;-82
2021/10/20 03:26:01;;;;;;;22.13;3.10;;;15.80;99.90;;;;;;5062185;28;20478;-80
2021/10/20 03:28:28;;;;;;;23.67;3.73;;;15.90;99.90;;;;;;5066406;28;20443;-83
2021/10/20 03:30:54;;;;;;;23.57;2.83;;;15.80;99.90;;;;;;5064848;28;20471;-85
2021/10/20 03:33:21;;;;;;;21.13;3.10;;;15.80;99.90;;;;;;5077118;28;20477;-85
2021/10/20 03:35:48;;;;;;;26.47;3.40;;;15.80;99.90;;;;;;5076798;28;20524;-82
2021/10/20 03:38:15;;;;;;;25.17;3.37;;;15.80;99.90;;;;;;5076695;28;20447;-82
2021/10/20 03:40:43;;;;;;;24.37;3.90;;;15.90;99.90;;;;;;5070851;28;20466;-82
2021/10/20 03:43:10;;;;;;;22.73;3.50;;;15.90;99.90;;;;;;5075847;28;20948;-81
2021/10/20 03:45:37;;;;;;;24.33;3.17;;;15.90;99.90;;;;;;5071697;28;20444;-83
2021/10/20 03:48:07;;;;;;;21.00;2.73;;;15.90;99.90;;;;;;5075937;28;20826;-83
2021/10/20 03:50:34;;;;;;;22.77;2.77;;;15.90;99.90;;;;;;5064762;28;21197;-82
2021/10/20 03:53:01;;;;;;;22.17;3.17;;;15.90;99.90;;;;;;5046189;28;20464;-84
2021/10/20 03:55:30;;;;;;;23.20;3.80;;;15.90;99.90;;;;;;5075590;28;20456;-83
2021/10/20 03:58:01;;;;;;;23.10;3.63;;;15.90;99.90;;;;;;5076669;28;20440;-85
2021/10/20 04:00:28;;;;;;;23.40;3.53;;;15.90;99.90;;;;;;5078462;28;20970;-84
2021/10/20 04:02:55;;;;;;;22.60;3.13;;;15.90;99.90;;;;;;5081229;28;20796;-83
2021/10/20 04:05:22;;;;;;;20.77;3.43;;;15.80;99.90;;;;;;5077944;28;20827;-85
2021/10/20 04:07:54;;;;;;;23.30;3.93;;;15.80;99.90;;;;;;5081603;28;20485;-86
2021/10/20 04:10:22;;;;;;;22.10;2.70;;;15.70;99.90;;;;;;5077698;28;20481;-84
2021/10/20 04:12:50;;;;;;;22.50;4.03;;;15.80;99.90;;;;;;5081277;28;20453;-82
2021/10/20 04:15:20;;;;;;;22.63;3.83;;;15.80;99.90;;;;;;5079129;28;20462;-86
2021/10/20 04:17:47;;;;;;;21.20;3.20;;;15.90;99.90;;;;;;5082688;28;20533;-84
2021/10/20 04:20:18;;;;;;;25.40;4.27;;;15.90;99.90;;;;;;5081636;28;20495;-85
2021/10/20 04:22:48;;;;;;;22.60;3.27;;;15.90;99.90;;;;;;5082623;28;20451;-82
2021/10/20 04:25:15;;;;;;;24.40;3.57;;;15.80;99.90;;;;;;5085048;28;20480;-83
2021/10/20 04:27:42;;;;;;;23.03;3.70;;;15.90;99.90;;;;;;5092622;28;20485;-85
2021/10/20 04:30:11;;;;;;;21.43;3.60;;;15.90;99.90;;;;;;5093486;28;20473;-85
2021/10/20 04:32:39;;;;;;;26.13;3.40;;;15.90;99.90;;;;;;5094710;28;20463;-85
2021/10/20 04:35:07;;;;;;;22.33;3.30;;;16.00;99.90;;;;;;5089341;28;20524;-84
2021/10/20 04:37:34;;;;;;;22.70;3.00;;;16.00;99.90;;;;;;5090559;28;20473;-84
2021/10/20 04:40:03;;;;;;;22.20;3.00;;;16.00;99.90;;;;;;5094483;28;20504;-83
2021/10/20 04:42:31;;;;;;;21.93;2.97;;;16.00;99.90;;;;;;5093651;28;20518;-82
2021/10/20 04:45:01;;;;;;;22.33;3.40;;;15.90;99.90;;;;;;5094615;28;20458;-84
2021/10/20 04:47:28;;;;;;;23.80;3.47;;;15.90;99.90;;;;;;5093212;28;20555;-84
2021/10/20 04:49:56;;;;;;;21.80;3.37;;;15.80;99.90;;;;;;5092425;28;20969;-84
2021/10/20 04:52:24;;;;;;;22.57;3.27;;;15.90;99.90;;;;;;5079138;28;20803;-85
2021/10/20 04:54:51;;;;;;;22.10;3.67;;;15.90;99.90;;;;;;5080734;28;20461;-84
2021/10/20 04:57:18;;;;;;;25.57;3.73;;;15.90;99.90;;;;;;5081503;28;20444;-84
2021/10/20 04:59:45;;;;;;;21.33;3.60;;;15.90;99.90;;;;;;5081592;28;20443;-84
2021/10/20 05:02:11;;;;;;;23.43;3.70;;;15.90;99.90;;;;;;5079301;28;20843;-83
2021/10/20 05:04:38;;;;;;;20.57;3.50;;;15.90;99.90;;;;;;5083386;28;20474;-85
2021/10/20 05:07:06;;;;;;;21.60;3.50;;;15.90;99.90;;;;;;5084943;28;20941;-85
2021/10/20 05:09:33;;;;;;;21.13;3.80;;;15.80;99.90;;;;;;5084673;28;20483;-84
2021/10/20 05:12:00;;;;;;;23.50;4.20;;;15.70;99.90;;;;;;5084344;28;20466;-86
2021/10/20 05:14:27;;;;;;;21.87;4.17;;;15.80;99.90;;;;;;5081185;28;20529;-86
2021/10/20 05:16:53;;;;;;;26.20;3.50;;;15.70;99.90;;;;;;5082937;28;20449;-86
2021/10/20 05:19:22;;;;;;;21.10;3.50;;;15.80;99.90;;;;;;5079387;28;20484;-85
2021/10/20 05:21:49;;;;;;;21.87;3.60;;;15.70;99.90;;;;;;5075609;28;20520;-87
2021/10/20 05:24:17;;;;;;;26.27;3.67;;;15.80;99.90;;;;;;5075611;28;20453;-85
2021/10/20 05:26:44;;;;;;;22.40;3.30;;;15.80;99.90;;;;;;5084613;28;20521;-85
2021/10/20 05:29:11;;;;;;;22.43;3.77;;;15.80;99.90;;;;;;5083312;28;20520;-86
2021/10/20 05:31:37;;;;;;;21.87;3.53;;;15.70;99.90;;;;;;5078594;28;20471;-86
2021/10/20 05:34:04;;;;;;;21.00;3.27;;;15.80;99.90;;;;;;5077836;28;20458;-84
2021/10/20 05:36:31;;;;;;;21.37;4.20;;;15.80;99.90;;;;;;5061527;28;20458;-84
2021/10/20 05:38:59;;;;;;;20.73;3.47;;;15.70;99.90;;;;;;5076258;28;20462;-84
2021/10/20 05:41:29;;;;;;;20.47;3.50;;;15.70;99.90;;;;;;5085204;28;20566;-84
2021/10/20 05:43:55;;;;;;;25.17;4.50;;;15.70;99.90;;;;;;5082653;28;20455;-86
2021/10/20 05:46:22;;;;;;;23.50;4.17;;;15.70;99.90;;;;;;5081902;28;20455;-85
2021/10/20 05:48:49;;;;;;;22.83;3.97;;;15.70;99.90;;;;;;5083021;28;20858;-85
2021/10/20 05:51:16;;;;;;;21.00;4.00;;;15.70;99.90;;;;;;5081945;28;20521;-81
2021/10/20 05:53:42;;;;;;;20.23;3.97;;;15.80;99.90;;;;;;5081745;28;20968;-82
2021/10/20 05:56:09;;;;;;;21.70;3.47;;;15.70;99.90;;;;;;5080873;28;20521;-85
2021/10/20 05:58:37;;;;;;;22.70;4.07;;;15.80;99.90;;;;;;5081353;28;20474;-86
2021/10/20 06:01:04;;;;;;;21.70;3.90;;;15.70;99.90;;;;;;5079568;28;20485;-84
2021/10/20 06:03:31;;;;;;;22.87;4.37;;;15.70;99.90;;;;;;5080264;28;20553;-85
2021/10/20 06:06:01;;;;;;;21.40;4.40;;;15.70;99.90;;;;;;5080784;28;20534;-85
2021/10/20 06:08:27;;;;;;;24.20;5.10;;;15.80;99.90;;;;;;5080385;28;20601;-84
2021/10/20 06:10:54;;;;;;;22.63;4.00;;;15.80;99.90;;;;;;5080143;28;20493;-85
2021/10/20 06:13:21;;;;;;;26.33;4.50;;;15.80;99.90;;;;;;5082847;28;20485;-84
2021/10/20 06:15:49;;;;;;;22.23;4.87;;;15.90;99.90;;;;;;5079533;28;20565;-85
2021/10/20 06:18:16;;;;;;;21.90;4.20;;;15.90;99.90;;;;;;5081356;28;20478;-85
2021/10/20 06:20:43;;;;;;;23.40;5.13;;;16.00;99.90;;;;;;5079400;28;20985;-84
2021/10/20 06:23:10;;;;;;;21.40;3.97;;;16.00;99.90;;;;;;5079991;28;20439;-84
2021/10/20 06:25:37;;;;;;;20.63;3.90;;;16.10;99.90;;;;;;5072845;28;20455;-84
2021/10/20 06:28:04;;;;;;;20.27;4.30;;;16.10;99.90;;;;;;5073461;28;20474;-85
2021/10/20 06:30:31;;;;;;;20.77;4.30;;;16.10;99.90;;;;;;5076176;28;20473;-85
2021/10/20 06:32:59;;;;;;;20.73;4.30;;;16.00;99.90;;;;;;5085207;28;20458;-85
2021/10/20 06:35:26;;;;;;;20.43;4.10;;;16.00;99.90;;;;;;5080309;28;20440;-83
2021/10/20 06:37:54;;;;;;;19.90;4.70;;;16.00;99.90;;;;;;5076111;28;20527;-85
2021/10/20 06:40:22;;;;;;;21.10;4.47;;;16.10;99.90;;;;;;5079162;28;20550;-83
2021/10/20 06:42:49;;;;;;;20.43;3.77;;;16.00;99.90;;;;;;5075376;28;20445;-84
2021/10/20 06:45:15;;;;;;;20.40;3.77;;;16.00;99.90;;;;;;5073593;28;20443;-84
2021/10/20 06:47:42;;;;;;;21.47;4.37;;;16.00;99.90;;;;;;5075267;28;20941;-84
2021/10/20 06:50:13;;;;;;;19.83;3.93;;;16.00;99.90;;;;;;5077695;28;21063;-84
2021/10/20 06:52:41;;;;;;;20.47;4.40;;;15.90;99.90;;;;;;5078425;28;20444;-83
2021/10/20 06:55:09;;;;;;;20.27;4.30;;;15.90;99.90;;;;;;5078590;28;20551;-84
2021/10/20 06:57:36;;;;;;;21.77;4.33;;;16.00;99.90;;;;;;5078111;28;20446;-82
2021/10/20 07:00:04;;;;;;;18.73;3.87;;;16.00;99.90;;;;;;5075405;28;20479;-81
2021/10/20 07:02:31;;;;;;;19.90;4.23;;;16.00;99.90;;;;;;5076275;28;20465;-81
2021/10/20 07:04:57;;;;;;;19.00;4.20;;;16.00;99.90;;;;;;5062942;28;20454;-82
2021/10/20 07:07:25;;;;;;;21.37;4.37;;;16.00;99.90;;;;;;5074150;28;20578;-83
2021/10/20 07:09:52;;;;;;;21.40;4.03;;;16.00;99.90;;;;;;5078887;28;20808;-82
2021/10/20 07:12:19;;;;;;;21.90;4.43;;;16.10;99.90;;;;;;5067893;28;20451;-82
2021/10/20 07:14:46;;;;;;;22.83;4.53;;;16.20;99.90;;;;;;5062249;28;21010;-84
2021/10/20 07:17:13;;;;;;;20.70;3.60;;;16.30;99.90;;;;;;5068618;28;20456;-81
2021/10/20 07:19:41;;;;;;;22.00;4.40;;;16.40;99.90;;;;;;5069211;28;20474;-81
2021/10/20 07:22:11;;;;;;;21.27;3.97;;;16.40;99.90;;;;;;5068394;28;20451;-83
2021/10/20 07:24:40;;;;;;;21.70;5.00;;;16.50;99.90;;;;;;5077179;28;20449;-82
2021/10/20 07:27:08;;;;;;;21.97;4.23;;;16.50;99.90;;;;;;5069728;28;20484;-84
2021/10/20 07:29:35;;;;;;;22.00;4.27;;;16.50;99.90;;;;;;5070370;28;20930;-83
2021/10/20 07:32:03;;;;;;;20.17;3.80;;;16.50;99.90;;;;;;5071868;28;20459;-85
2021/10/20 07:34:31;;;;;;;20.40;4.30;;;16.50;99.90;;;;;;5070707;28;20478;-84
2021/10/20 07:37:11;;;;;;;19.87;3.80;;;16.50;99.90;;;;;;5067087;28;20462;-85
2021/10/20 07:39:40;;;;;;;20.97;3.77;;;16.60;99.90;;;;;;5074128;28;20476;-84
2021/10/20 07:42:07;;;;;;;21.53;3.73;;;16.60;99.90;;;;;;5074600;28;20501;-83
2021/10/20 07:44:33;;;;;;;22.20;4.13;;;16.60;99.90;;;;;;5079828;28;20506;-82
2021/10/20 07:47:00;;;;;;;24.80;4.63;;;16.70;99.90;;;;;;5080183;28;20534;-84
2021/10/20 07:49:27;;;;;;;21.70;4.30;;;16.50;99.90;;;;;;5082303;28;20957;-85
2021/10/20 07:51:57;;;;;;;20.93;4.23;;;16.60;99.90;;;;;;5076452;28;20473;-84
2021/10/20 07:54:24;;;;;;;22.43;4.00;;;16.70;99.90;;;;;;5082334;28;20455;-84
2021/10/20 07:56:53;;;;;;;22.40;4.50;;;16.70;99.90;;;;;;5083226;28;20455;-84
2021/10/20 07:59:21;;;;;;;21.53;4.40;;;16.80;99.90;;;;;;5081958;28;20507;-85
2021/10/20 08:01:48;;;;;;;19.50;3.40;;;16.80;99.90;;;;;;5079803;28;20551;-84
2021/10/20 08:04:15;;;;;;;32.90;16.27;;;16.90;99.90;;;;;;5077125;28;20490;-84
2021/10/20 08:06:42;;;;;;;20.83;4.00;;;16.90;99.90;;;;;;5066963;28;20447;-84
2021/10/20 08:09:09;;;;;;;20.87;3.70;;;17.00;99.90;;;;;;5074691;28;20491;-84
2021/10/20 08:11:36;;;;;;;23.00;3.70;;;17.00;99.90;;;;;;5069015;28;20459;-83
2021/10/20 08:14:04;;;;;;;20.57;3.93;;;17.10;99.90;;;;;;5079257;28;20454;-83
2021/10/20 08:16:34;;;;;;;23.70;4.80;;;17.20;99.90;;;;;;5078625;28;20479;-84
2021/10/20 08:19:01;;;;;;;22.87;3.90;;;17.20;99.90;;;;;;5078668;28;20432;-86
2021/10/20 08:21:28;;;;;;;21.10;3.80;;;17.20;99.90;;;;;;5080304;28;20478;-84
2021/10/20 08:23:55;;;;;;;22.27;4.40;;;17.10;99.90;;;;;;5079755;28;20582;-86
2021/10/20 08:26:21;;;;;;;23.30;4.87;;;17.10;99.90;;;;;;5079723;28;20452;-85
2021/10/20 08:28:48;;;;;;;21.60;3.60;;;17.10;99.90;;;;;;5081748;28;20478;-85
2021/10/20 08:31:17;;;;;;;22.23;4.67;;;17.20;99.90;;;;;;5082185;28;20547;-84
2021/10/20 08:33:43;;;;;;;20.80;4.47;;;17.30;99.90;;;;;;5091210;28;20478;-85
2021/10/20 08:36:10;;;;;;;21.10;4.70;;;17.20;99.90;;;;;;5076633;28;20450;-83
2021/10/20 08:38:37;;;;;;;22.40;6.10;;;17.10;99.90;;;;;;5078836;28;21061;-84
2021/10/20 08:41:05;;;;;;;21.07;5.20;;;17.20;99.90;;;;;;5077865;28;20472;-85
2021/10/20 08:43:32;;;;;;;24.30;4.60;;;17.20;99.90;;;;;;5072197;28;20511;-83
2021/10/20 08:45:59;;;;;;;21.50;5.43;;;17.30;99.90;;;;;;5080298;28;20464;-83
2021/10/20 08:48:30;;;;;;;22.30;4.60;;;17.30;99.90;;;;;;5074985;28;20863;-83
2021/10/20 08:50:59;;;;;;;19.87;4.13;;;17.50;99.90;;;;;;5079799;28;20486;-83
2021/10/20 08:53:29;;;;;;;19.60;4.10;;;17.50;99.90;;;;;;5066898;28;20457;-84
2021/10/20 08:55:57;;;;;;;21.20;4.03;;;17.60;99.90;;;;;;5079371;28;20541;-84
2021/10/20 08:58:24;;;;;;;21.57;4.83;;;17.80;99.90;;;;;;5073520;28;20459;-84
2021/10/20 09:00:51;;;;;;;20.30;4.27;;;17.90;99.90;;;;;;5075965;28;20478;-82
2021/10/20 09:03:17;;;;;;;23.33;5.10;;;17.90;99.90;;;;;;5078433;28;20545;-83
2021/10/20 09:05:46;;;;;;;23.53;4.17;;;18.00;99.90;;;;;;5078869;28;21164;-84
2021/10/20 09:08:13;;;;;;;20.30;3.83;;;18.30;99.90;;;;;;5082417;28;20489;-83
2021/10/20 09:10:40;;;;;;;22.37;4.60;;;18.30;99.90;;;;;;5082510;28;20505;-85
2021/10/20 09:13:07;;;;;;;20.87;4.07;;;18.30;99.90;;;;;;5085228;28;20541;-85
2021/10/20 09:15:37;;;;;;;21.97;4.30;;;18.40;99.90;;;;;;5081034;28;20450;-85
2021/10/20 09:18:06;;;;;;;22.60;4.70;;;18.30;99.90;;;;;;5068499;28;20466;-84
2021/10/20 09:20:34;;;;;;;22.07;4.73;;;18.40;99.90;;;;;;5078546;28;20468;-86
2021/10/20 09:23:06;;;;;;;20.90;3.87;;;18.40;99.90;;;;;;5081146;28;20453;-85
2021/10/20 09:25:37;;;;;;;21.80;5.17;;;18.30;99.90;;;;;;5083219;28;20441;-86
2021/10/20 09:28:08;;;;;;;21.17;4.20;;;18.20;99.90;;;;;;5084335;28;20482;-85
2021/10/20 09:30:37;;;;;;;19.43;4.70;;;18.10;99.90;;;;;;5083237;28;20468;-85
2021/10/20 09:33:03;;;;;;;27.73;5.33;;;18.00;99.90;;;;;;5080630;28;20460;-86
2021/10/20 09:35:32;;;;;;;20.43;4.17;;;18.10;99.90;;;;;;5073531;28;20555;-85
2021/10/20 09:37:59;;;;;;;21.63;4.07;;;18.10;99.90;;;;;;5081429;28;20448;-84
2021/10/20 09:40:34;;;;;;;20.80;3.70;;;18.00;99.90;;;;;;5078786;28;20466;-84
2021/10/20 09:43:01;;;;;;;22.50;3.93;;;18.00;99.90;;;;;;5079888;28;20452;-84
2021/10/20 09:45:31;;;;;;;20.93;3.87;;;17.90;99.90;;;;;;5076007;28;20447;-83
2021/10/20 09:48:10;;;;;;;22.47;4.13;;;17.70;99.90;;;;;;5074872;28;20517;-83
2021/10/20 09:50:39;;;;;;;22.87;3.90;;;17.70;99.90;;;;;;5082763;28;20474;-83
2021/10/20 09:53:06;;;;;;;22.33;4.00;;;17.70;99.90;;;;;;5079732;28;20451;-83
2021/10/20 09:55:35;;;;;;;21.30;3.97;;;17.60;99.90;;;;;;5084717;28;20458;-85
2021/10/20 09:58:03;;;;;;;21.07;4.50;;;17.60;99.90;;;;;;5082990;28;20463;-84
2021/10/20 10:00:30;;;;;;;21.77;4.10;;;17.70;99.90;;;;;;5082924;28;20479;-85
2021/10/20 10:02:58;;;;;;;20.50;3.80;;;17.60;99.90;;;;;;5080601;28;20837;-85
2021/10/20 10:05:29;;;;;;;21.53;4.10;;;17.60;99.90;;;;;;5082289;28;20456;-84
2021/10/20 10:07:56;;;;;;;22.30;4.37;;;17.70;99.90;;;;;;5079995;28;20861;-84
2021/10/20 10:10:28;;;;;;;23.10;4.87;;;17.70;99.90;;;;;;5094438;22;20494;-85
2021/10/20 10:13:05;;;;;;;23.30;4.87;;;17.80;99.90;;;;;;5038983;28;20462;-85
2021/10/20 10:15:43;;;;;;;22.77;5.30;;;17.90;99.90;;;;;;5039511;28;20853;-85
2021/10/20 10:18:13;;;;;;;21.67;4.50;;;18.00;99.90;;;;;;5021892;28;20498;-83
2021/10/20 10:20:50;;;;;;;22.10;4.10;;;18.10;99.90;;;;;;5037089;28;20819;-85
2021/10/20 10:23:20;;;;;;;26.00;7.83;;;18.00;99.90;;;;;;5035683;28;20475;-85
2021/10/20 10:25:59;;;;;;;20.47;4.50;;;18.00;99.90;;;;;;5038677;28;20454;-85
2021/10/20 10:28:35;;;;;;;22.30;4.40;;;17.90;99.90;;;;;;5035709;28;20496;-84
2021/10/20 10:31:06;;;;;;;18.93;4.43;;;17.90;99.90;;;;;;5062967;23;20598;-86
2021/10/20 10:33:38;;;;;;;20.73;4.13;;;17.80;99.90;;;;;;5068675;28;20484;-85
2021/10/20 10:36:06;;;;;;;20.60;4.67;;;17.80;99.90;;;;;;5078362;28;20491;-85
2021/10/20 10:38:38;;;;;;;20.17;3.60;;;17.80;99.90;;;;;;5065100;28;20444;-85
2021/10/20 10:41:21;;;;;;;23.87;7.70;;;17.90;99.90;;;;;;5056540;28;20493;-82
2021/10/20 10:44:14;;;;;;;21.00;4.33;;;17.90;99.90;;;;;;5043414;28;20552;-82
2021/10/20 10:46:42;;;;;;;23.40;4.43;;;18.00;99.90;;;;;;5044413;28;20466;-83
2021/10/20 10:49:30;;;;;;;23.17;5.27;;;18.00;99.90;;;;;;5042381;28;21003;-81
2021/10/20 10:52:31;;;;;;;22.93;4.27;;;17.90;99.90;;;;;;5058176;28;20469;-82
2021/10/20 10:55:07;;;;;;;24.43;5.70;;;17.80;99.90;;;;;;5039103;28;20462;-83
2021/10/20 10:57:56;;;;;;;23.00;4.50;;;17.70;99.90;;;;;;5059547;28;20460;-83
2021/10/20 11:00:46;;;;;;;22.40;4.97;;;17.60;99.90;;;;;;5046225;28;20477;-82
2021/10/20 11:03:26;;;;;;;26.70;5.00;;;17.50;99.90;;;;;;5038352;28;20521;-83
2021/10/20 11:05:57;;;;;;;21.40;4.37;;;17.50;99.90;;;;;;5049636;28;20487;-81
2021/10/20 11:08:25;;;;;;;21.90;5.30;;;17.60;99.90;;;;;;5045371;28;20495;-82
2021/10/20 11:10:52;;;;;;;21.07;4.43;;;17.40;99.90;;;;;;5045211;28;20559;-83
2021/10/20 11:13:20;;;;;;;20.60;5.10;;;17.50;99.90;;;;;;5044901;28;20484;-83
2021/10/20 11:15:49;;;;;;;25.63;5.10;;;17.40;99.90;;;;;;5047141;28;20439;-82
2021/10/20 11:18:16;;;;;;;22.23;4.90;;;17.30;99.90;;;;;;5046364;28;20456;-82
2021/10/20 11:20:45;;;;;;;21.00;4.73;;;17.30;99.90;;;;;;5042729;28;21001;-83
2021/10/20 11:23:14;;;;;;;19.50;5.93;;;17.30;99.90;;;;;;5044178;28;20467;-82
2021/10/20 11:25:42;;;;;;;21.00;4.57;;;17.20;99.90;;;;;;5042440;28;20833;-80
2021/10/20 11:28:10;;;;;;;19.90;4.40;;;17.20;99.90;;;;;;5048522;28;20456;-80
2021/10/20 11:30:39;;;;;;;20.90;4.57;;;17.30;99.90;;;;;;5048921;28;20478;-81
2021/10/20 11:33:18;;;;;;;20.00;4.90;;;17.30;99.90;;;;;;5049480;28;20478;-82
2021/10/20 11:35:46;;;;;;;21.43;5.10;;;17.30;99.90;;;;;;5048766;28;20471;-80
2021/10/20 11:38:14;;;;;;;20.57;4.77;;;17.30;99.90;;;;;;5059604;28;20452;-79
2021/10/20 11:40:43;;;;;;;21.50;4.40;;;17.30;99.90;;;;;;5049163;28;20549;-80
2021/10/20 11:43:18;;;;;;;24.00;6.77;;;17.40;99.90;;;;;;5049960;28;20455;-79
2021/10/20 11:45:46;;;;;;;18.80;4.23;;;17.30;99.90;;;;;;5039393;28;20461;-81
2021/10/20 11:48:18;;;;;;;19.70;5.03;;;17.40;99.90;;;;;;5059773;28;20549;-80
2021/10/20 11:50:49;;;;;;;19.13;4.90;;;17.50;99.90;;;;;;5061510;28;20497;-80
2021/10/20 11:53:16;;;;;;;22.30;4.93;;;17.50;99.90;;;;;;5056329;28;20546;-80
2021/10/20 11:55:45;;;;;;;19.40;4.13;;;17.60;99.90;;;;;;5044883;28;20536;-80
2021/10/20 11:58:20;;;;;;;19.50;5.17;;;17.60;99.90;;;;;;5059713;28;20457;-80
2021/10/20 12:00:52;;;;;;;19.30;4.60;;;17.70;99.90;;;;;;5053323;28;20564;-81
2021/10/20 12:03:20;;;;;;;19.30;5.30;;;17.60;99.90;;;;;;5047070;28;20447;-79
2021/10/20 12:05:48;;;;;;;19.77;5.30;;;17.50;99.90;;;;;;5038605;28;20456;-81
2021/10/20 12:08:15;;;;;;;19.20;4.80;;;17.50;99.90;;;;;;5038871;28;20488;-81
2021/10/20 12:10:42;;;;;;;19.47;4.93;;;17.50;99.90;;;;;;5046795;28;20856;-80
2021/10/20 12:13:09;;;;;;;19.90;4.70;;;17.60;99.90;;;;;;5055545;28;20451;-81
2021/10/20 12:15:42;;;;;;;21.63;5.20;;;17.60;99.90;;;;;;5055615;28;20446;-82
2021/10/20 12:18:09;;;;;;;24.20;5.13;;;17.50;99.90;;;;;;5048898;28;20569;-81
2021/10/20 12:20:40;;;;;;;21.93;5.43;;;17.50;99.90;;;;;;5054118;28;20461;-82
2021/10/20 12:23:08;;;;;;;19.83;5.30;;;17.50;99.90;;;;;;5053601;28;20452;-80
2021/10/20 12:25:35;;;;;;;19.07;5.93;;;17.50;99.90;;;;;;5053336;28;20482;-82
2021/10/20 12:28:02;;;;;;;21.27;4.90;;;17.50;99.90;;;;;;5062707;28;20452;-82
2021/10/20 12:30:30;;;;;;;18.23;5.00;;;17.50;99.90;;;;;;5042124;28;20505;-82
2021/10/20 12:32:56;;;;;;;18.60;5.00;;;17.50;99.90;;;;;;5061648;28;20508;-82
2021/10/20 12:35:23;;;;;;;21.10;5.53;;;17.50;99.90;;;;;;5050296;28;20896;-83
2021/10/20 12:37:52;;;;;;;18.20;4.77;;;17.50;99.90;;;;;;5047904;28;20462;-81
2021/10/20 12:40:21;;;;;;;19.57;5.20;;;17.50;99.90;;;;;;5064578;28;20459;-81
2021/10/20 12:42:51;;;;;;;18.33;5.13;;;17.50;99.90;;;;;;5061352;28;20498;-83